createdAt,value
2019-05-21T00:01:40.731Z,99432.20
2019-05-21T00:04:27.518Z,99438.88
2019-05-21T00:06:47.739Z,99438.45
2019-05-21T00:09:20.413Z,99442.84
2019-05-21T00:11:52.653Z,99436.77
2019-05-21T00:14:25.359Z,99431.03
2019-05-21T00:16:58.092Z,99433.26
2019-05-21T00:19:31.482Z,99429.31
2019-05-21T00:22:04.113Z,99431.91
2019-05-21T00:24:36.930Z,99430.98
2019-05-21T00:27:09.581Z,99433.59
2019-05-21T00:30:36.782Z,99431.88
2019-05-21T00:34:03.477Z,99434.95
2019-05-21T00:37:30.588Z,99432.80
2019-05-21T00:40:57.693Z,99434.97
2019-05-21T00:43:47.115Z,99430.59
2019-05-21T00:46:19.806Z,99443.34
2019-05-21T00:48:52.415Z,99448.25
2019-05-21T00:51:25.095Z,99442.61
2019-05-21T00:53:57.679Z,99439.14
2019-05-21T00:56:30.349Z,99439.63
2019-05-21T00:59:03.037Z,99433.98
2019-05-21T01:01:35.723Z,99428.32
2019-05-21T01:04:08.388Z,99430.09
2019-05-21T01:06:42.548Z,99434.52
2019-05-21T01:09:15.291Z,99438.95
2019-05-21T01:11:47.560Z,99438.54
2019-05-21T01:14:21.735Z,99446.00
2019-05-21T01:19:40.447Z,99434.59
2019-05-21T01:22:13.330Z,99443.83
2019-05-21T01:24:46.011Z,99438.55
2019-05-21T01:27:18.592Z,99438.13
2019-05-21T01:29:50.845Z,99443.42
2019-05-21T01:32:23.635Z,99446.94
2019-05-21T01:34:56.357Z,99446.58
2019-05-21T01:37:28.888Z,99439.61
2019-05-21T01:40:01.512Z,99441.38
2019-05-21T01:42:34.352Z,99436.56
2019-05-21T01:45:09.489Z,99442.73
2019-05-21T01:47:41.815Z,99440.09
2019-05-21T01:50:14.449Z,99446.66
2019-05-21T01:52:47.115Z,99447.11
2019-05-21T01:55:19.792Z,99446.25
2019-05-21T01:57:52.472Z,99448.42
2019-05-21T02:00:25.253Z,99454.12
2019-05-21T02:02:57.831Z,99439.23
2019-05-21T02:05:33.445Z,99445.37
2019-05-21T02:08:05.339Z,99443.13
2019-05-21T02:10:38.065Z,99446.64
2019-05-21T02:13:10.293Z,99444.39
2019-05-21T02:15:43.370Z,99445.23
2019-05-21T02:18:16.054Z,99450.03
2019-05-21T02:20:48.734Z,99442.57
2019-05-21T02:23:21.334Z,99443.43
2019-05-21T02:25:54.095Z,99441.19
2019-05-21T02:28:26.333Z,99438.52
2019-05-21T02:30:58.951Z,99448.15
2019-05-21T02:33:31.159Z,99441.98
2019-05-21T02:36:03.793Z,99441.98
2019-05-21T02:38:36.010Z,99451.18
2019-05-21T02:41:08.266Z,99443.70
2019-05-21T02:43:40.903Z,99441.06
2019-05-21T02:46:13.576Z,99445.86
2019-05-21T02:48:45.795Z,99451.98
2019-05-21T02:51:18.427Z,99450.20
2019-05-21T02:53:51.159Z,99451.98
2019-05-21T02:56:23.785Z,99456.80
2019-05-21T02:58:56.329Z,99460.80
2019-05-21T03:01:39.209Z,99462.55
2019-05-21T03:04:11.984Z,99463.32
2019-05-21T03:06:45.871Z,99463.28
2019-05-21T03:09:18.651Z,99466.75
2019-05-21T03:11:51.432Z,99463.23
2019-05-21T03:14:24.318Z,99474.61
2019-05-21T03:16:57.305Z,99468.52
2019-05-21T03:19:30.134Z,99475.52
2019-05-21T03:22:02.763Z,99475.95
2019-05-21T03:24:35.546Z,99470.69
2019-05-21T03:27:09.760Z,99471.50
2019-05-21T03:29:42.439Z,99469.70
2019-05-21T03:32:15.115Z,99478.90
2019-05-21T03:34:47.550Z,99476.63
2019-05-21T03:37:20.166Z,99481.85
2019-05-21T03:39:52.710Z,99484.91
2019-05-21T03:42:25.323Z,99484.88
2019-05-21T03:45:00.309Z,99487.03
2019-05-21T03:47:32.323Z,99488.36
2019-05-21T03:50:06.845Z,99484.79
2019-05-21T03:52:40.444Z,99489.19
2019-05-21T03:55:13.940Z,99485.18
2019-05-21T03:57:46.623Z,99489.08
2019-05-21T04:00:20.646Z,99488.18
2019-05-21T04:02:53.296Z,99486.80
2019-05-21T04:05:27.933Z,99488.45
2019-05-21T04:08:00.616Z,99488.83
2019-05-21T04:10:33.195Z,99487.89
2019-05-21T04:13:09.442Z,99488.74
2019-05-21T04:15:50.987Z,99493.89
2019-05-21T04:18:31.199Z,99494.65
2019-05-21T04:21:03.883Z,99491.00
2019-05-21T04:23:37.171Z,99491.27
2019-05-21T04:26:10.055Z,99487.17
2019-05-21T04:28:42.299Z,99483.98
2019-05-21T04:31:15.013Z,99489.19
2019-05-21T04:33:48.807Z,99484.70
2019-05-21T04:36:21.066Z,99478.47
2019-05-21T04:38:54.065Z,99473.55
2019-05-21T04:41:26.743Z,99472.89
2019-05-21T04:43:59.378Z,99468.23
2019-05-21T04:46:32.011Z,99470.27
2019-05-21T04:49:04.629Z,99472.33
2019-05-21T04:51:37.250Z,99469.05
2019-05-21T04:54:09.842Z,99464.02
2019-05-21T04:56:42.410Z,99461.17
2019-05-21T04:59:14.984Z,99461.46
2019-05-21T05:01:47.243Z,99465.64
2019-05-21T05:04:21.921Z,99466.86
2019-05-21T05:06:53.934Z,99470.66
2019-05-21T05:09:27.283Z,99475.78
2019-05-21T05:11:59.915Z,99478.99
2019-05-21T05:14:33.523Z,99473.95
2019-05-21T05:17:06.194Z,99472.91
2019-05-21T05:19:39.802Z,99476.65
2019-05-21T05:22:12.479Z,99476.46
2019-05-21T05:24:45.157Z,99472.68
2019-05-21T05:27:17.831Z,99479.90
2019-05-21T05:29:51.435Z,99479.95
2019-05-21T05:32:24.055Z,99483.93
2019-05-21T05:34:56.263Z,99480.12
2019-05-21T05:37:42.779Z,99484.33
2019-05-21T05:40:02.789Z,99484.88
2019-05-21T05:42:35.449Z,99485.83
2019-05-21T05:45:09.349Z,99491.72
2019-05-21T05:47:42.030Z,99495.23
2019-05-21T05:50:16.353Z,99497.05
2019-05-21T05:52:49.090Z,99497.47
2019-05-21T05:55:21.669Z,99489.25
2019-05-21T05:57:55.227Z,99498.34
2019-05-21T06:00:27.790Z,99493.13
2019-05-21T06:03:01.486Z,99491.57
2019-05-21T06:05:34.058Z,99489.34
2019-05-21T06:08:06.945Z,99491.46
2019-05-21T06:10:40.225Z,99482.66
2019-05-21T06:13:14.567Z,99481.83
2019-05-21T06:15:47.289Z,99483.19
2019-05-21T06:18:19.912Z,99487.73
2019-05-21T06:20:52.605Z,99485.55
2019-05-21T06:23:25.273Z,99478.80
2019-05-21T06:25:59.845Z,99478.43
2019-05-21T06:28:32.087Z,99473.54
2019-05-21T06:31:05.230Z,99476.41
2019-05-21T06:33:37.930Z,99471.27
2019-05-21T06:36:10.508Z,99467.66
2019-05-21T06:38:43.190Z,99464.18
2019-05-21T06:41:15.786Z,99471.68
2019-05-21T06:43:48.446Z,99471.78
2019-05-21T06:46:21.025Z,99470.50
2019-05-21T06:48:53.703Z,99473.88
2019-05-21T06:51:26.274Z,99468.57
2019-05-21T06:53:58.954Z,99466.79
2019-05-21T06:56:31.638Z,99468.70
2019-05-21T06:59:05.239Z,99470.55
2019-05-21T07:01:38.586Z,99470.16
2019-05-21T07:04:11.216Z,99470.08
2019-05-21T07:06:44.903Z,99465.48
2019-05-21T07:09:18.306Z,99471.83
2019-05-21T07:11:50.983Z,99473.25
2019-05-21T07:14:23.868Z,99476.91
2019-05-21T07:16:56.548Z,99474.42
2019-05-21T07:19:28.814Z,99478.89
2019-05-21T07:22:12.214Z,99480.88
2019-05-21T07:24:35.444Z,99477.53
2019-05-21T07:27:07.689Z,99477.93
2019-05-21T07:29:40.560Z,99480.27
2019-05-21T07:32:13.241Z,99482.09
2019-05-21T07:34:46.840Z,99480.05
2019-05-21T07:37:19.516Z,99475.91
2019-05-21T07:39:52.096Z,99483.66
2019-05-21T07:42:25.287Z,99481.38
2019-05-21T07:44:57.868Z,99479.59
2019-05-21T07:47:30.644Z,99483.42
2019-05-21T07:50:02.856Z,99490.63
2019-05-21T07:52:35.489Z,99481.38
2019-05-21T07:55:08.175Z,99481.59
2019-05-21T07:57:41.006Z,99476.68
2019-05-21T08:00:14.663Z,99482.00
2019-05-21T08:02:47.390Z,99470.88
2019-05-21T08:05:20.029Z,99473.63
2019-05-21T08:07:52.691Z,99482.53
2019-05-21T08:10:25.242Z,99475.73
2019-05-21T08:12:57.853Z,99482.52
2019-05-21T08:15:30.630Z,99476.15
2019-05-21T08:18:09.531Z,99485.64
2019-05-21T08:20:44.806Z,99481.71
2019-05-21T08:23:20.342Z,99478.45
2019-05-21T08:26:09.008Z,99468.18
2019-05-21T08:29:00.196Z,99478.99
2019-05-21T08:31:38.558Z,99470.86
2019-05-21T08:34:14.056Z,99472.72
2019-05-21T08:36:49.371Z,99474.47
2019-05-21T08:39:29.157Z,99472.61
2019-05-21T08:42:02.470Z,99471.47
2019-05-21T08:44:38.762Z,99472.39
2019-05-21T08:47:17.096Z,99468.03
2019-05-21T08:49:52.645Z,99466.52
2019-05-21T08:52:25.709Z,99474.19
2019-05-21T08:54:58.648Z,99475.34
2019-05-21T08:57:39.083Z,99479.14
2019-05-21T09:00:22.880Z,99471.18
2019-05-21T09:03:05.193Z,99479.39
2019-05-21T09:05:42.663Z,99479.00
2019-05-21T09:08:21.119Z,99474.74
2019-05-21T09:10:58.155Z,99474.14
2019-05-21T09:13:36.487Z,99474.86
2019-05-21T09:16:22.107Z,99476.56
2019-05-21T09:18:59.918Z,99491.09
2019-05-21T09:21:39.529Z,99489.95
2019-05-21T09:24:18.484Z,99486.77
2019-05-21T09:26:55.572Z,99471.84
2019-05-21T09:29:30.043Z,99471.94
2019-05-21T09:32:02.927Z,99477.81
2019-05-21T09:34:48.167Z,99479.55
2019-05-21T09:37:19.221Z,99477.23
2019-05-21T09:39:44.510Z,99470.47
2019-05-21T09:42:17.330Z,99481.88
2019-05-21T09:44:49.866Z,99481.88
2019-05-21T09:47:22.598Z,99472.05
2019-05-21T09:49:55.839Z,99472.05
2019-05-21T09:52:29.917Z,99480.86
2019-05-21T09:55:02.634Z,99480.86
2019-05-21T09:57:53.172Z,99474.52
2019-05-21T10:00:33.180Z,99464.66
2019-05-21T10:03:14.748Z,99468.99
2019-05-21T10:05:47.348Z,99472.01
2019-05-21T10:08:20.036Z,99473.20
2019-05-21T10:10:52.906Z,99474.53
2019-05-21T10:13:25.515Z,99469.00
2019-05-21T10:16:01.209Z,99467.47
2019-05-21T10:18:32.789Z,99462.81
2019-05-21T10:21:05.788Z,99468.53
2019-05-21T10:23:38.512Z,99459.22
2019-05-21T10:26:11.133Z,99466.28
2019-05-21T10:28:43.810Z,99462.63
2019-05-21T10:31:16.545Z,99463.60
2019-05-21T10:33:49.273Z,99453.94
2019-05-21T10:36:21.853Z,99446.83
2019-05-21T10:38:54.530Z,99449.55
2019-05-21T10:41:27.110Z,99448.48
2019-05-21T10:43:59.900Z,99457.24
2019-05-21T10:46:32.565Z,99457.24
2019-05-21T10:49:05.549Z,99462.63
2019-05-21T10:51:38.137Z,99465.86
2019-05-21T10:54:10.866Z,99461.22
2019-05-21T10:56:48.152Z,99473.02
2019-05-21T10:59:17.810Z,99470.68
2019-05-21T11:01:58.163Z,99470.95
2019-05-21T11:04:35.465Z,99478.13
2019-05-21T11:07:09.365Z,99474.06
2019-05-21T11:09:42.254Z,99470.75
2019-05-21T11:12:15.653Z,99467.96
2019-05-21T11:14:48.229Z,99470.34
2019-05-21T11:17:21.926Z,99469.29
2019-05-21T11:19:54.606Z,99466.67
2019-05-21T11:22:27.275Z,99459.88
2019-05-21T11:24:59.856Z,99463.73
2019-05-21T11:27:32.530Z,99456.02
2019-05-21T11:30:09.314Z,99453.49
2019-05-21T11:32:41.987Z,99449.05
2019-05-21T11:35:15.386Z,99444.66
2019-05-21T11:37:48.279Z,99448.20
2019-05-21T11:40:23.421Z,99450.68
2019-05-21T11:42:56.428Z,99447.05
2019-05-21T11:45:32.707Z,99452.82
2019-05-21T11:48:03.697Z,99450.91
2019-05-21T11:50:36.111Z,99451.60
2019-05-21T11:53:08.748Z,99448.50
2019-05-21T11:55:41.430Z,99446.63
2019-05-21T11:58:14.023Z,99446.36
2019-05-21T12:00:46.784Z,99452.20
2019-05-21T12:03:19.464Z,99452.69
2019-05-21T12:05:51.830Z,99455.64
2019-05-21T12:08:24.522Z,99448.47
2019-05-21T12:10:57.093Z,99451.20
2019-05-21T12:13:29.976Z,99441.95
2019-05-21T12:16:02.554Z,99443.25
2019-05-21T12:18:35.233Z,99447.16
2019-05-21T12:21:08.014Z,99447.54
2019-05-21T12:23:40.793Z,99461.26
2019-05-21T12:26:13.475Z,99452.81
2019-05-21T12:28:47.157Z,99456.86
2019-05-21T12:31:19.815Z,99453.82
2019-05-21T12:33:52.637Z,99457.09
2019-05-21T12:36:25.340Z,99469.86
2019-05-21T12:39:13.014Z,99478.03
2019-05-21T12:41:34.900Z,99470.24
2019-05-21T12:44:07.658Z,99476.33
2019-05-21T12:46:40.236Z,99481.30
2019-05-21T12:49:14.354Z,99486.51
2019-05-21T12:51:47.229Z,99470.31
2019-05-21T12:54:19.914Z,99462.79
2019-05-21T12:56:52.700Z,99458.82
2019-05-21T12:59:25.602Z,99457.53
2019-05-21T13:01:58.367Z,99456.77
2019-05-21T13:04:31.344Z,99456.98
2019-05-21T13:07:04.021Z,99456.92
2019-05-21T13:09:36.810Z,99447.38
2019-05-21T13:12:09.892Z,99446.37
2019-05-21T13:14:42.833Z,99431.73
2019-05-21T13:17:15.516Z,99438.34
2019-05-21T13:19:47.771Z,99434.36
2019-05-21T13:22:20.510Z,99430.76
2019-05-21T13:24:53.312Z,99443.29
2019-05-21T13:27:25.565Z,99444.77
2019-05-21T13:29:58.661Z,99440.51
2019-05-21T13:32:32.202Z,99432.33
2019-05-21T13:35:06.766Z,99431.22
2019-05-21T13:37:39.657Z,99433.44
2019-05-21T13:40:13.771Z,99434.46
2019-05-21T13:42:46.350Z,99443.06
2019-05-21T13:45:19.026Z,99443.56
2019-05-21T13:47:51.432Z,99440.19
2019-05-21T13:50:24.788Z,99438.36
2019-05-21T13:52:57.470Z,99438.23
2019-05-21T13:55:33.766Z,99438.14
2019-05-21T13:58:04.472Z,99435.36
2019-05-21T14:00:41.264Z,99438.52
2019-05-21T14:03:14.535Z,99443.05
2019-05-21T14:05:47.163Z,99437.76
2019-05-21T14:08:19.806Z,99446.49
2019-05-21T14:10:52.024Z,99443.42
2019-05-21T14:13:25.156Z,99440.67
2019-05-21T14:15:58.855Z,99436.39
2019-05-21T14:18:31.531Z,99436.39
2019-05-21T14:21:04.130Z,99426.34
2019-05-21T14:23:36.994Z,99442.75
2019-05-21T14:26:09.685Z,99449.41
2019-05-21T14:28:42.405Z,99444.10
2019-05-21T14:31:15.059Z,99442.06
2019-05-21T14:33:48.016Z,99443.40
2019-05-21T14:36:20.598Z,99435.15
2019-05-21T14:38:53.173Z,99426.78
2019-05-21T14:41:25.754Z,99429.04
2019-05-21T14:43:58.423Z,99422.25
2019-05-21T14:46:30.632Z,99430.84
2019-05-21T14:49:03.277Z,99432.14
2019-05-21T14:51:35.972Z,99442.19
2019-05-21T14:54:25.036Z,99447.57
2019-05-21T14:56:47.135Z,99447.20
2019-05-21T14:59:17.268Z,99439.78
2019-05-21T15:01:49.897Z,99439.57
2019-05-21T15:04:22.749Z,99436.64
2019-05-21T15:06:55.451Z,99436.10
2019-05-21T15:09:28.045Z,99434.78
2019-05-21T15:12:00.772Z,99437.69
2019-05-21T15:14:33.445Z,99440.77
2019-05-21T15:17:07.143Z,99446.19
2019-05-21T15:19:41.480Z,99444.39
2019-05-21T15:22:14.044Z,99444.50
2019-05-21T15:24:46.722Z,99441.73
2019-05-21T15:27:19.302Z,99432.85
2019-05-21T15:29:52.079Z,99430.84
2019-05-21T15:32:25.635Z,99429.11
2019-05-21T15:34:58.867Z,99418.53
2019-05-21T15:37:31.703Z,99425.08
2019-05-21T15:40:05.977Z,99417.73
2019-05-21T15:42:39.467Z,99430.25
2019-05-21T15:45:13.173Z,99433.11
2019-05-21T15:47:45.737Z,99427.34
2019-05-21T15:50:19.660Z,99434.56
2019-05-21T15:52:52.250Z,99426.31
2019-05-21T15:55:24.927Z,99422.11
2019-05-21T15:57:57.488Z,99423.97
2019-05-21T16:00:30.378Z,99419.70
2019-05-21T16:03:02.956Z,99418.52
2019-05-21T16:05:35.738Z,99428.13
2019-05-21T16:08:08.310Z,99423.71
2019-05-21T16:10:40.571Z,99426.91
2019-05-21T16:13:12.877Z,99424.18
2019-05-21T16:15:45.527Z,99425.86
2019-05-21T16:18:18.210Z,99425.84
2019-05-21T16:20:51.039Z,99420.08
2019-05-21T16:23:23.975Z,99417.67
2019-05-21T16:25:56.654Z,99422.59
2019-05-21T16:28:29.228Z,99427.75
2019-05-21T16:31:01.909Z,99426.36
2019-05-21T16:33:34.688Z,99431.43
2019-05-21T16:36:07.782Z,99432.89
2019-05-21T16:38:40.357Z,99426.73
2019-05-21T16:41:12.629Z,99428.84
2019-05-21T16:43:45.208Z,99431.50
2019-05-21T16:46:17.886Z,99423.16
2019-05-21T16:48:50.764Z,99421.44
2019-05-21T16:51:23.447Z,99418.52
2019-05-21T16:53:56.023Z,99422.77
2019-05-21T16:56:29.011Z,99422.41
2019-05-21T16:59:01.221Z,99414.75
2019-05-21T17:01:33.852Z,99419.30
2019-05-21T17:04:06.538Z,99418.89
2019-05-21T17:06:39.225Z,99429.44
2019-05-21T17:09:14.149Z,99422.56
2019-05-21T17:11:59.143Z,99416.11
2019-05-21T17:14:21.065Z,99423.16
2019-05-21T17:16:53.725Z,99425.05
2019-05-21T17:19:26.295Z,99423.42
2019-05-21T17:21:59.084Z,99417.75
2019-05-21T17:24:31.921Z,99413.76
2019-05-21T17:27:04.280Z,99410.59
2019-05-21T17:29:36.911Z,99408.09
2019-05-21T17:32:09.693Z,99402.42
2019-05-21T17:34:42.610Z,99404.47
2019-05-21T17:37:15.356Z,99393.17
2019-05-21T17:39:47.935Z,99395.25
2019-05-21T17:42:20.818Z,99396.12
2019-05-21T17:44:53.497Z,99396.61
2019-05-21T17:47:26.704Z,99395.25
2019-05-21T17:49:59.553Z,99388.41
2019-05-21T17:52:32.463Z,99389.06
2019-05-21T17:55:07.187Z,99375.98
2019-05-21T17:57:40.377Z,99381.05
2019-05-21T18:00:16.953Z,99375.92
2019-05-21T18:02:52.092Z,99376.03
2019-05-21T18:05:29.453Z,99368.88
2019-05-21T18:08:07.769Z,99380.98
2019-05-21T18:10:45.885Z,99378.36
2019-05-21T18:13:26.691Z,99381.22
2019-05-21T18:16:05.314Z,99390.12
2019-05-21T18:18:41.416Z,99397.13
2019-05-21T18:21:17.089Z,99390.48
2019-05-21T18:23:49.766Z,99392.30
2019-05-21T18:26:22.457Z,99393.30
2019-05-21T18:28:55.227Z,99398.05
2019-05-21T18:31:27.907Z,99403.23
2019-05-21T18:34:02.327Z,99412.71
2019-05-21T18:36:35.343Z,99416.28
2019-05-21T18:39:09.529Z,99432.70
2019-05-21T18:48:16.456Z,99478.49
2019-05-21T18:57:38.221Z,99490.14
2019-05-21T19:03:39.554Z,99491.52
2019-05-21T19:06:12.163Z,99491.23
2019-05-21T19:12:15.176Z,99492.77
2019-05-21T19:14:47.874Z,99494.28
2019-05-21T19:17:33.263Z,99492.59
2019-05-21T19:19:55.262Z,99497.33
2019-05-21T19:22:27.901Z,99495.03
2019-05-21T19:25:00.623Z,99485.45
2019-05-21T19:27:33.444Z,99482.72
2019-05-21T19:30:08.848Z,99481.84
2019-05-21T19:32:41.525Z,99490.31
2019-05-21T19:35:14.718Z,99492.91
2019-05-21T19:37:47.296Z,99483.17
2019-05-21T19:40:20.074Z,99478.38
2019-05-21T19:42:55.437Z,99483.75
2019-05-21T19:45:27.684Z,99483.84
2019-05-21T19:48:00.261Z,99482.58
2019-05-21T19:50:33.041Z,99485.36
2019-05-21T19:53:06.163Z,99486.20
2019-05-21T19:55:39.532Z,99482.20
2019-05-21T19:58:12.344Z,99486.18
2019-05-21T20:00:46.527Z,99486.20
2019-05-21T20:03:20.232Z,99482.70
2019-05-21T20:05:53.319Z,99486.70
2019-05-21T20:10:55.752Z,99486.45
2019-05-21T20:13:32.738Z,99489.43
2019-05-21T20:16:03.755Z,99492.51
2019-05-21T20:18:36.614Z,99489.43
2019-05-21T20:21:09.716Z,99482.41
2019-05-21T20:23:43.100Z,99480.78
2019-05-21T20:26:18.031Z,99477.57
2019-05-21T20:28:50.749Z,99475.50
2019-05-21T20:31:24.301Z,99476.50
2019-05-21T20:33:57.197Z,99472.66
2019-05-21T20:36:29.984Z,99478.48
2019-05-21T20:39:02.961Z,99475.89
2019-05-21T20:41:37.690Z,99477.28
2019-05-21T20:44:12.311Z,99473.38
2019-05-21T20:46:46.640Z,99476.92
2019-05-21T20:49:20.028Z,99470.36
2019-05-21T20:51:52.744Z,99478.02
2019-05-21T20:54:27.541Z,99475.78
2019-05-21T20:56:59.940Z,99481.08
2019-05-21T20:59:32.998Z,99483.22
2019-05-21T21:02:08.732Z,99478.42
2019-05-21T21:04:40.724Z,99476.60
2019-05-21T21:07:13.401Z,99475.80
2019-05-21T21:09:46.691Z,99476.23
2019-05-21T21:12:20.659Z,99469.16
2019-05-21T21:14:53.992Z,99469.84
2019-05-21T21:17:27.399Z,99466.33
2019-05-21T21:20:00.590Z,99473.81
2019-05-21T21:22:33.667Z,99472.38
2019-05-21T21:25:07.197Z,99468.08
2019-05-21T21:27:39.844Z,99465.55
2019-05-21T21:30:13.080Z,99462.59
2019-05-21T21:32:46.126Z,99462.22
2019-05-21T21:35:18.906Z,99470.19
2019-05-21T21:37:52.094Z,99463.06
2019-05-21T21:40:25.695Z,99462.73
2019-05-21T21:42:58.475Z,99456.94
2019-05-21T21:45:31.258Z,99450.88
2019-05-21T21:48:04.244Z,99459.33
2019-05-21T21:50:37.974Z,99464.65
2019-05-21T21:53:10.635Z,99463.38
2019-05-21T21:55:43.407Z,99464.27
2019-05-21T21:58:16.086Z,99470.56
2019-05-21T22:00:58.495Z,99474.03
2019-05-21T22:03:36.803Z,99480.82
2019-05-21T22:06:10.860Z,99476.09
2019-05-21T22:08:43.700Z,99479.70
2019-05-21T22:11:16.901Z,99477.09
2019-05-21T22:13:50.924Z,99482.39
2019-05-21T22:16:24.702Z,99486.31
2019-05-21T22:18:57.695Z,99482.27
2019-05-21T22:21:30.682Z,99491.35
2019-05-21T22:24:03.922Z,99490.42
2019-05-21T22:26:36.553Z,99491.65
2019-05-21T22:29:09.537Z,99481.11
2019-05-21T22:31:42.639Z,99485.82
2019-05-21T22:34:15.405Z,99480.03
2019-05-21T22:36:48.088Z,99487.97
2019-05-21T22:39:22.304Z,99487.47
2019-05-21T22:41:54.538Z,99482.17
2019-05-21T22:44:27.863Z,99476.05
2019-05-21T22:47:01.061Z,99471.32
2019-05-21T22:49:34.185Z,99473.67
2019-05-21T22:52:06.893Z,99471.98
2019-05-21T22:54:39.601Z,99468.58
2019-05-21T22:57:12.282Z,99467.77
2019-05-21T22:59:44.967Z,99472.74
2019-05-21T23:02:19.355Z,99472.74
2019-05-21T23:04:52.674Z,99468.34
2019-05-21T23:07:25.097Z,99471.05
2019-05-21T23:09:59.572Z,99476.41
2019-05-21T23:12:33.481Z,99476.84
2019-05-21T23:15:24.254Z,99477.73
2019-05-21T23:17:49.476Z,99474.75
2019-05-21T23:20:41.103Z,99470.41
2019-05-21T23:23:15.103Z,99470.14
2019-05-21T23:25:49.421Z,99480.45
2019-05-21T23:28:22.508Z,99473.41
2019-05-21T23:30:55.293Z,99480.57
2019-05-21T23:33:28.127Z,99479.80
2019-05-21T23:36:02.800Z,99483.60
2019-05-21T23:38:37.180Z,99481.84
2019-05-21T23:41:10.412Z,99477.87
2019-05-21T23:43:43.727Z,99478.76
2019-05-21T23:46:16.911Z,99479.20
2019-05-21T23:48:49.785Z,99476.16
2019-05-21T23:51:23.490Z,99480.58
2019-05-21T23:53:56.257Z,99480.69
2019-05-21T23:56:28.941Z,99482.45
2019-05-21T23:59:01.623Z,99488.20
